Levy, New Mexico
Current Conditions -  °F | °C
As of 5:53 AM on Wednesday 22 Oct 2014 (Local Time) from KLVS Reporting Station
Clear Clear  
Wind Chill: 39°   Ceiling: Unl
Heat Index: 43°   Visibility: 9mi
Dew Point: 41°   Wind: 6mph
Humidity: 93%   Direction: 360°N
Pressure: 30.17"   Gusts: NA
Location:  35.9933°N, 104.615°W
Report Text: KLVS 221153Z AUTO 36005KT 9SM CLR 06/05 A3017 RMK AO2 SLP152 70004 T00610050 10094 20061 53004
Loading
Personal Weather Stations






























Interactive Weather Map
Tropical Storm Tracking
New forecast layout! Learn more

10-Day Weather Forecast

Advertisements
Track Severe Weather on mobile